AerodromSadržaj TAF prognoze
LYBETAF LYBE 221700Z 2218/2318 13007KT CAVOK TX22/2313Z TN13/2304Z TEMPO 2314/2318 RA=
LYBTTAF LYBT 221700Z 2218/2318 11005KT CAVOK TX22/2312Z TN13/2305Z TEMPO 2314/2318 RA=
LYKVTAF LYKV 221700Z 2218/2318 15006KT CAVOK TX23/2313Z TN13/2305Z TEMPO 2312/2318 5000 RA=
LYNITAF LYNI 221700Z 2218/2318 10005KT CAVOK TX25/2312Z TN09/2304Z TEMPO 2308/2312 18012KT TEMPO 2312/2318 24012KT 5000 SHRA SCT030TCU BKN040=
LYVRTAF LYVR 221700Z 2218/2318 16009KT CAVOK TX25/2313Z TN11/2304Z TEMPO 2221/2309 14015G25KT TEMPO 2315/2318 RA=
LYUZTAF LYUZ 221700Z 2218/2318 23006KT CAVOK TX17/2313Z TN11/2305Z TEMPO 2311/2318 5000 RA=
LYPGTAF LYPG 221700Z 2218/2318 15006KT 9999 SCT040 SCT080 TX25/2314Z TN16/2304Z PROB30 TEMPO 2221/2302 TSRA FEW020 FEW030CB SCT040 TEMPO 2307/2318 5000 RA PROB40 TEMPO 2310/2318 VRB15G25KT 3000 TSRA FEW010 SCT030CB SCT040=
LYTVTAF LYTV 221700Z 2218/2318 10005KT 9999 SCT040 OVC080 TX23/13Z TN11/2303Z BECMG 2302/2304 17013KT 7000 RA TEMPO 2308/2318 15015G27KT 3000 TSRA FEW015 SCT027CB BKN033=

Podaci učitani u: 2019-09-22 21:28:14 UTC

METAR, TAF, AIRMET, GAMET, SIGMET

Važna napomena: MET infоrmаciје nа оvim web strаnicаmа imајu infоrmаtivni kаrаktеr, nаmenjene su isključivo vаzduhоplоvnim kоrisnicima, nе smејu sе kоristiti zа bilо kоје kоmеrciјаlnе svrhе, i nе zаmеnjuјu dоkumеntаciјu zа lеt.